Time;durP1;ratioP1;P1;durP2;ratioP2;P2;SDS_P1;SDS_P2;PMS_P1;PMS_P2;Temp;Humidity;BMP_temperature;BMP_pressure;BME280_temperature;BME280_humidity;BME280_pressure;Samples;Min_cycle;Max_cycle;Signal;HPM_P1;HPM_P2
2022/10/16 00:00:37;;;;;;;;;;;;;;;16.48;56.89;101555.25;5058348;28;1397;-54
2022/10/16 00:03:02;;;;;;;;;;;;;;;16.28;56.71;101561.31;5058615;28;1146;-53
2022/10/16 00:05:28;;;;;;;;;;;;;;;16.18;56.90;101559.25;5077286;28;1119;-51
2022/10/16 00:07:53;;;;;;;;;;;;;;;17.52;55.74;101550.69;5078315;28;1980;-52
2022/10/16 00:10:19;;;;;;;;;;;;;;;17.01;56.40;101561.16;5078506;28;1118;-50
2022/10/16 00:12:44;;;;;;;;;;;;;;;16.58;57.08;101558.16;5075026;28;2737;-55
2022/10/16 00:15:10;;;;;;;;;;;;;;;16.41;56.53;101556.28;5078224;28;1087;-50
2022/10/16 00:17:35;;;;;;;;;;;;;;;16.24;56.49;101569.19;5078203;28;1126;-54
2022/10/16 00:20:01;;;;;;;;;;;;;;;16.21;56.74;101570.53;5078399;28;1090;-54
2022/10/16 00:22:26;;;;;;;;;;;;;;;17.67;55.21;101562.91;5078412;28;1177;-50
2022/10/16 00:24:52;;;;;;;;;;;;;;;16.98;56.54;101559.75;5078432;28;1119;-56
2022/10/16 00:27:17;;;;;;;;;;;;;;;16.53;56.99;101564.38;5075516;28;1914;-55
2022/10/16 00:29:42;;;;;;;;;;;;;;;16.36;56.92;101561.69;5066574;28;1167;-55
2022/10/16 00:32:08;;;;;;;;;;;;;;;17.23;56.28;101555.63;5078495;28;1078;-53
2022/10/16 00:34:33;;;;;;;;;;;;;;;17.18;56.01;101561.06;5077776;28;1074;-54
2022/10/16 00:36:59;;;;;;;;;;;;;;;16.65;56.58;101553.31;5078163;28;1162;-50
2022/10/16 00:39:24;;;;;;;;;;;;;;;16.46;56.65;101549.19;5077277;28;1126;-54
2022/10/16 00:41:50;;;;;;;;;;;;;;;16.32;56.26;101555.03;5073769;28;1881;-55
2022/10/16 00:44:34;;;;;;;;;;;;;;;16.17;56.42;101558.41;5069731;28;1127;-53
2022/10/16 00:46:59;;;;;;;;;;;;;;;16.38;56.78;101553.19;5064472;28;1139;-53
2022/10/16 00:49:25;;;;;;;;;;;;;;;17.72;55.11;101552.78;5077616;28;1897;-53
2022/10/16 00:51:51;;;;;;;;;;;;;;;16.87;56.68;101541.47;5077490;28;1162;-50
2022/10/16 00:54:20;;;;;;;;;;;;;;;16.54;56.86;101555.06;5077784;28;1111;-55
2022/10/16 00:56:46;;;;;;;;;;;;;;;16.33;56.53;101543.00;5074024;28;1169;-54
2022/10/16 00:59:14;;;;;;;;;;;;;;;17.10;56.56;101545.88;5039531;28;1237;-54
2022/10/16 01:01:39;;;;;;;;;;;;;;;17.29;55.78;101540.84;5054750;28;1182;-54
2022/10/16 01:04:04;;;;;;;;;;;;;;;16.69;56.51;101554.44;5075930;28;1106;-56
2022/10/16 01:06:36;;;;;;;;;;;;;;;16.48;56.85;101558.00;5077577;28;1202;-51
2022/10/16 01:09:16;;;;;;;;;;;;;;;16.30;56.60;101565.47;5046018;28;1906;-57
2022/10/16 01:12:03;;;;;;;;;;;;;;;16.19;56.20;101566.41;5059593;28;2553;-52
2022/10/16 01:14:34;;;;;;;;;;;;;;;16.05;56.37;101566.72;5056914;28;1143;-50
2022/10/16 01:17:20;;;;;;;;;;;;;;;16.14;56.53;101574.53;5072580;28;1131;-47
2022/10/16 01:19:48;;;;;;;;;;;;;;;17.70;55.03;101578.91;5076908;28;1387;-49
2022/10/16 01:22:14;;;;;;;;;;;;;;;16.96;56.30;101580.31;5077217;28;1131;-51
2022/10/16 01:24:40;;;;;;;;;;;;;;;16.50;57.09;101591.53;5068192;28;1154;-52
2022/10/16 01:27:09;;;;;;;;;;;;;;;16.32;56.67;101587.16;5071756;28;1194;-52
2022/10/16 01:29:36;;;;;;;;;;;;;;;16.15;56.62;101582.50;5076759;28;1913;-54
2022/10/16 01:32:05;;;;;;;;;;;;;;;16.84;56.60;101583.19;5059344;28;1103;-53
2022/10/16 01:34:35;;;;;;;;;;;;;;;17.46;55.26;101590.25;5059241;28;1171;-58
2022/10/16 01:37:10;;;;;;;;;;;;;;;16.69;57.03;101592.91;5077036;28;1194;-53
2022/10/16 01:39:36;;;;;;;;;;;;;;;16.43;56.81;101595.28;5074749;28;1234;-57
2022/10/16 01:42:08;;;;;;;;;;;;;;;16.24;56.72;101591.16;5058541;28;2278;-57
2022/10/16 01:44:33;;;;;;;;;;;;;;;17.00;56.38;101586.97;5033939;28;1128;-57
2022/10/16 01:46:59;;;;;;;;;;;;;;;17.60;54.88;101585.16;5039345;28;1154;-57
2022/10/16 01:49:25;;;;;;;;;;;;;;;16.82;56.62;101591.69;5056701;28;1914;-57
2022/10/16 01:51:50;;;;;;;;;;;;;;;16.50;56.84;101588.78;5057154;28;1171;-58
2022/10/16 01:54:16;;;;;;;;;;;;;;;16.42;56.60;101585.41;5058942;28;1119;-57
2022/10/16 01:56:41;;;;;;;;;;;;;;;16.19;56.50;101594.66;5075260;28;1159;-58
2022/10/16 01:59:09;;;;;;;;;;;;;;;16.54;56.98;101593.50;5074931;28;1149;-58
2022/10/16 02:01:35;;;;;;;;;;;;;;;17.73;54.89;101584.72;5076473;28;1099;-58
2022/10/16 02:04:02;;;;;;;;;;;;;;;16.83;56.78;101582.38;5072601;28;1104;-57
2022/10/16 02:06:27;;;;;;;;;;;;;;;16.52;57.13;101587.47;5069164;28;1139;-57
2022/10/16 02:08:53;;;;;;;;;;;;;;;16.34;56.91;101580.34;5062014;28;1906;-57
2022/10/16 02:11:18;;;;;;;;;;;;;;;16.19;56.51;101585.59;5058598;28;1127;-56
2022/10/16 02:13:45;;;;;;;;;;;;;;;16.94;56.63;101577.84;5073015;28;2574;-58
2022/10/16 02:16:11;;;;;;;;;;;;;;;17.60;55.19;101588.72;5074455;28;1256;-57
2022/10/16 02:18:36;;;;;;;;;;;;;;;16.80;56.57;101582.03;5076232;28;1115;-56
2022/10/16 02:21:04;;;;;;;;;;;;;;;16.51;56.75;101576.69;5076069;28;1115;-55
2022/10/16 02:23:58;;;;;;;;;;;;;;;16.36;56.78;101588.31;5058465;28;1202;-57
2022/10/16 02:26:47;;;;;;;;;;;;;;;16.17;56.57;101580.38;5008541;28;1207;-58
2022/10/16 02:29:14;;;;;;;;;;;;;;;17.26;56.30;101586.19;5059707;28;1902;-58
2022/10/16 02:31:42;;;;;;;;;;;;;;;17.17;56.35;101587.72;5067881;28;1154;-58
2022/10/16 02:34:07;;;;;;;;;;;;;;;16.68;56.67;101588.47;5055674;28;1096;-57
2022/10/16 02:36:32;;;;;;;;;;;;;;;16.41;57.04;101591.97;5038020;28;1205;-56
2022/10/16 02:39:00;;;;;;;;;;;;;;;16.26;56.57;101594.50;5038215;28;1155;-57
2022/10/16 02:41:25;;;;;;;;;;;;;;;16.17;56.38;101590.50;5054093;28;2274;-57
2022/10/16 02:43:51;;;;;;;;;;;;;;;17.31;56.34;101598.34;5058038;28;1116;-57
2022/10/16 02:46:16;;;;;;;;;;;;;;;17.08;56.38;101609.34;5075736;28;1131;-57
2022/10/16 02:48:42;;;;;;;;;;;;;;;16.55;57.02;101603.41;5057982;28;1965;-57
2022/10/16 02:51:07;;;;;;;;;;;;;;;16.33;56.92;101602.56;5075913;28;1126;-57
2022/10/16 02:53:33;;;;;;;;;;;;;;;16.18;56.70;101608.63;5075656;28;1216;-57
2022/10/16 02:55:58;;;;;;;;;;;;;;;16.11;56.60;101603.31;5075568;28;1130;-57
2022/10/16 02:58:24;;;;;;;;;;;;;;;17.47;55.80;101615.81;5075665;28;1169;-58
2022/10/16 03:00:49;;;;;;;;;;;;;;;17.09;56.41;101612.91;5075598;28;1155;-57
2022/10/16 03:03:14;;;;;;;;;;;;;;;16.58;56.92;101618.56;5061381;28;1327;-55
2022/10/16 03:05:40;;;;;;;;;;;;;;;16.39;56.88;101616.06;5061957;28;1000;-58
2022/10/16 03:08:05;;;;;;;;;;;;;;;16.23;56.81;101617.78;5075693;28;1972;-58
2022/10/16 03:10:31;;;;;;;;;;;;;;;17.38;55.84;101621.78;5075626;28;1347;-57
2022/10/16 03:12:56;;;;;;;;;;;;;;;17.12;56.01;101617.91;5072512;28;2697;-55
2022/10/16 03:15:21;;;;;;;;;;;;;;;16.57;57.10;101619.63;5075656;28;1114;-51
2022/10/16 03:17:47;;;;;;;;;;;;;;;16.43;56.94;101617.22;5075584;28;857;-56
2022/10/16 03:20:12;;;;;;;;;;;;;;;16.28;56.49;101614.25;5081438;28;1131;-55
2022/10/16 03:22:38;;;;;;;;;;;;;;;16.12;56.46;101609.59;5075612;28;1110;-57
2022/10/16 03:25:03;;;;;;;;;;;;;;;16.01;56.40;101620.44;5075660;28;1547;-55
2022/10/16 03:27:29;;;;;;;;;;;;;;;15.92;56.42;101610.94;5074368;28;1980;-58
2022/10/16 03:29:55;;;;;;;;;;;;;;;16.96;56.72;101621.53;5069336;28;978;-57
2022/10/16 03:32:21;;;;;;;;;;;;;;;17.59;55.14;101611.81;5078684;28;1103;-60
2022/10/16 03:34:46;;;;;;;;;;;;;;;16.69;56.93;101619.50;5078971;28;1162;-57
2022/10/16 03:37:12;;;;;;;;;;;;;;;16.45;57.08;101613.41;5079536;28;1346;-58
2022/10/16 03:39:37;;;;;;;;;;;;;;;16.27;56.67;101615.38;5079139;28;1153;-57
2022/10/16 03:42:03;;;;;;;;;;;;;;;16.10;56.75;101614.53;5073655;28;2467;-58
2022/10/16 03:44:28;;;;;;;;;;;;;;;16.47;57.11;101616.75;5078788;28;1193;-52
2022/10/16 03:46:53;;;;;;;;;;;;;;;17.51;55.24;101619.72;5073418;28;1202;-54
2022/10/16 03:49:19;;;;;;;;;;;;;;;16.63;57.11;101632.34;5058642;28;1910;-52
2022/10/16 03:51:45;;;;;;;;;;;;;;;16.34;57.09;101632.50;5058888;28;1237;-57
2022/10/16 03:54:10;;;;;;;;;;;;;;;16.19;56.93;101629.50;5068326;28;905;-49
2022/10/16 03:56:35;;;;;;;;;;;;;;;16.50;57.21;101643.69;5079026;28;1174;-52
2022/10/16 03:59:01;;;;;;;;;;;;;;;17.57;55.18;101626.91;5078944;28;1127;-53
2022/10/16 04:01:26;;;;;;;;;;;;;;;16.72;56.75;101635.50;5065070;28;1198;-52
2022/10/16 04:03:52;;;;;;;;;;;;;;;16.39;57.02;101640.78;5072052;28;1360;-49
2022/10/16 04:06:17;;;;;;;;;;;;;;;16.23;56.68;101645.22;5070053;28;1468;-47
2022/10/16 04:08:43;;;;;;;;;;;;;;;16.07;56.88;101646.88;5078464;28;1975;-54
2022/10/16 04:11:08;;;;;;;;;;;;;;;16.25;57.04;101645.78;5078276;28;1130;-53
2022/10/16 04:13:34;;;;;;;;;;;;;;;17.64;54.96;101641.28;5075537;28;2581;-56
2022/10/16 04:15:59;;;;;;;;;;;;;;;16.83;56.74;101644.69;5078613;28;1186;-56
2022/10/16 04:18:27;;;;;;;;;;;;;;;16.45;56.98;101649.09;5077873;28;892;-56
2022/10/16 04:20:53;;;;;;;;;;;;;;;16.24;56.96;101648.78;5078070;28;1107;-56
2022/10/16 04:23:18;;;;;;;;;;;;;;;16.14;56.90;101645.88;5078767;28;1118;-56
2022/10/16 04:25:43;;;;;;;;;;;;;;;17.54;55.39;101646.69;5078006;28;1095;-55
2022/10/16 04:28:09;;;;;;;;;;;;;;;16.88;56.37;101647.53;5078321;28;1985;-54
2022/10/16 04:30:34;;;;;;;;;;;;;;;16.45;56.90;101640.88;5078036;28;1210;-56
2022/10/16 04:33:00;;;;;;;;;;;;;;;16.30;56.97;101644.19;5070660;28;1039;-55
2022/10/16 04:35:25;;;;;;;;;;;;;;;16.13;56.82;101646.94;5058375;28;1205;-52
2022/10/16 04:37:51;;;;;;;;;;;;;;;16.14;56.65;101649.44;5062873;28;1166;-57
2022/10/16 04:40:17;;;;;;;;;;;;;;;17.55;55.19;101653.84;5078232;28;1130;-54
2022/10/16 04:42:42;;;;;;;;;;;;;;;16.82;56.78;101662.28;5066245;28;2261;-55
2022/10/16 04:45:08;;;;;;;;;;;;;;;16.42;56.88;101662.25;5072083;28;1127;-50
2022/10/16 04:47:33;;;;;;;;;;;;;;;16.21;57.04;101658.34;5058595;28;2039;-54
2022/10/16 04:50:00;;;;;;;;;;;;;;;16.10;56.62;101651.03;5061313;28;1150;-51
2022/10/16 04:52:26;;;;;;;;;;;;;;;16.37;57.00;101667.66;5078231;28;1153;-54
2022/10/16 04:54:51;;;;;;;;;;;;;;;17.61;54.75;101659.16;5076982;28;1138;-56
2022/10/16 04:57:17;;;;;;;;;;;;;;;16.73;56.70;101654.47;5077813;28;1142;-56
2022/10/16 04:59:42;;;;;;;;;;;;;;;16.38;56.88;101669.34;5077454;28;1129;-56
2022/10/16 05:02:08;;;;;;;;;;;;;;;16.22;56.89;101659.19;5072087;28;1180;-55
2022/10/16 05:04:33;;;;;;;;;;;;;;;16.60;56.91;101669.38;5068557;28;1177;-57
2022/10/16 05:06:59;;;;;;;;;;;;;;;17.43;54.94;101674.06;5077408;28;1185;-56
2022/10/16 05:09:24;;;;;;;;;;;;;;;16.64;56.53;101672.47;5077290;28;1985;-57
2022/10/16 05:11:50;;;;;;;;;;;;;;;16.37;56.77;101677.81;5062876;28;2459;-56
2022/10/16 05:14:15;;;;;;;;;;;;;;;16.21;56.59;101674.81;5077197;28;1162;-58
2022/10/16 05:16:41;;;;;;;;;;;;;;;16.08;56.22;101683.38;5076998;28;1237;-56
2022/10/16 05:19:06;;;;;;;;;;;;;;;16.62;56.49;101690.25;5077016;28;1146;-58
2022/10/16 05:21:31;;;;;;;;;;;;;;;17.74;54.14;101685.41;5077302;28;1178;-56
2022/10/16 05:23:57;;;;;;;;;;;;;;;16.77;56.14;101694.09;5076742;28;1134;-58
2022/10/16 05:26:22;;;;;;;;;;;;;;;16.43;56.69;101699.59;5076873;28;1154;-58
2022/10/16 05:28:49;;;;;;;;;;;;;;;16.25;56.43;101694.34;5076398;28;1989;-60
2022/10/16 05:31:14;;;;;;;;;;;;;;;16.14;56.32;101704.31;5063530;28;912;-57
2022/10/16 05:33:39;;;;;;;;;;;;;;;16.02;56.63;101704.41;5076683;28;1130;-56
2022/10/16 05:36:06;;;;;;;;;;;;;;;17.49;54.86;101715.34;5076791;28;1158;-56
2022/10/16 05:38:32;;;;;;;;;;;;;;;16.62;57.92;101723.22;5059040;28;1151;-57
2022/10/16 05:40:58;;;;;;;;;;;;;;;17.43;54.84;101720.81;5076789;28;1150;-57
2022/10/16 05:43:24;;;;;;;;;;;;;;;16.64;53.88;101721.88;5074443;28;2443;-58
2022/10/16 05:45:55;;;;;;;;;;;;;;;17.54;55.20;101729.19;5077029;28;1217;-58
2022/10/16 05:48:20;;;;;;;;;;;;;;;16.90;54.29;101723.13;5062526;28;1960;-58
2022/10/16 05:50:46;;;;;;;;;;;;;;;16.72;53.51;101732.44;5076052;28;1222;-58
2022/10/16 05:53:11;;;;;;;;;;;;;;;17.41;54.33;101731.22;5075043;28;1099;-58
2022/10/16 05:55:37;;;;;;;;;;;;;;;16.84;52.88;101734.25;5063974;28;1346;-55
2022/10/16 05:58:02;;;;;;;;;;;;;;;17.16;53.40;101728.97;5076681;28;1099;-55
2022/10/16 06:00:28;;;;;;;;;;;;;;;16.95;52.93;101741.59;5076331;28;1206;-56
2022/10/16 06:02:53;;;;;;;;;;;;;;;17.18;53.21;101736.97;5076816;28;1118;-54
2022/10/16 06:05:18;;;;;;;;;;;;;;;18.11;52.87;101736.97;5076303;28;1190;-57
2022/10/16 06:07:44;;;;;;;;;;;;;;;17.19;52.81;101749.63;5075591;28;1957;-58
2022/10/16 06:10:09;;;;;;;;;;;;;;;16.89;51.20;101751.69;5060936;28;1134;-53
2022/10/16 06:12:35;;;;;;;;;;;;;;;16.92;52.01;101747.59;5063483;28;2681;-53
2022/10/16 06:15:00;;;;;;;;;;;;;;;17.35;52.68;101746.00;5076323;28;1221;-57
2022/10/16 06:17:26;;;;;;;;;;;;;;;16.98;51.53;101754.00;5075962;28;1194;-55
2022/10/16 06:19:51;;;;;;;;;;;;;;;16.75;50.16;101753.91;5076050;28;967;-56
2022/10/16 06:22:17;;;;;;;;;;;;;;;17.84;51.85;101753.47;5076192;28;1143;-56
2022/10/16 06:24:42;;;;;;;;;;;;;;;17.02;51.82;101745.00;5076444;28;1115;-57
2022/10/16 06:27:08;;;;;;;;;;;;;;;16.78;50.65;101749.84;5076126;28;1221;-55
2022/10/16 06:29:33;;;;;;;;;;;;;;;17.27;51.45;101751.94;5075825;28;1910;-56
2022/10/16 06:31:59;;;;;;;;;;;;;;;17.18;51.60;101759.81;5076036;28;910;-57
2022/10/16 06:34:24;;;;;;;;;;;;;;;16.83;50.59;101771.06;5076298;28;1174;-56
2022/10/16 06:36:50;;;;;;;;;;;;;;;16.73;49.11;101761.59;5047194;28;1344;-56
2022/10/16 06:39:15;;;;;;;;;;;;;;;17.78;51.02;101777.34;5072719;28;1205;-55
2022/10/16 06:41:40;;;;;;;;;;;;;;;17.18;51.32;101765.31;5076130;28;2392;-56
2022/10/16 06:44:14;;;;;;;;;;;;;;;16.88;50.17;101771.13;5067485;28;917;-54
2022/10/16 06:46:39;;;;;;;;;;;;;;;16.81;49.20;101775.97;5075668;28;1202;-55
2022/10/16 06:49:05;;;;;;;;;;;;;;;17.51;50.37;101770.94;5066149;28;1913;-57
2022/10/16 06:51:31;;;;;;;;;;;;;;;17.08;50.70;101789.88;5057834;28;1202;-57
2022/10/16 06:53:57;;;;;;;;;;;;;;;16.83;49.67;101779.28;5075592;28;1166;-57
2022/10/16 06:56:23;;;;;;;;;;;;;;;17.79;50.62;101792.75;5075818;28;1122;-57
2022/10/16 06:58:49;;;;;;;;;;;;;;;17.08;50.78;101781.63;5075495;28;1198;-57
2022/10/16 07:01:14;;;;;;;;;;;;;;;16.95;50.22;101782.81;5077707;28;1220;-57
2022/10/16 07:03:40;;;;;;;;;;;;;;;17.71;50.84;101792.38;5079794;28;1150;-57
2022/10/16 07:06:06;;;;;;;;;;;;;;;17.08;50.62;101782.47;5069734;28;1182;-56
2022/10/16 07:08:32;;;;;;;;;;;;;;;18.21;50.92;101782.22;5075375;28;1906;-57
2022/10/16 07:10:59;;;;;;;;;;;;;;;17.50;51.53;101781.13;5079488;28;1174;-55
2022/10/16 07:13:24;;;;;;;;;;;;;;;17.11;50.33;101767.41;5079648;28;2574;-55
2022/10/16 07:15:50;;;;;;;;;;;;;;;16.96;49.35;101780.88;5080083;28;1126;-53
2022/10/16 07:18:15;;;;;;;;;;;;;;;17.39;50.13;101791.16;5079374;28;1111;-53
2022/10/16 07:20:40;;;;;;;;;;;;;;;17.77;51.22;101794.91;5079648;28;1370;-58
2022/10/16 07:23:06;;;;;;;;;;;;;;;17.44;51.49;101788.44;5079605;28;1134;-56
2022/10/16 07:25:31;;;;;;;;;;;;;;;19.00;50.16;101794.50;5079242;28;1166;-55
2022/10/16 07:27:57;;;;;;;;;;;;;;;15.19;59.34;101791.50;5076910;28;2335;-54
2022/10/16 07:30:22;;;;;;;;;;;;;;;17.47;54.11;101791.78;5079377;28;1166;-53
2022/10/16 07:32:48;;;;;;;;;;;;;;;18.02;52.66;101778.97;5073713;28;1118;-50
2022/10/16 07:35:13;;;;;;;;;;;;;;;14.81;59.70;101785.44;5059764;28;1154;-60
2022/10/16 07:37:39;;;;;;;;;;;;;;;17.08;54.79;101782.47;5063244;28;1146;-57
2022/10/16 07:40:05;;;;;;;;;;;;;;;17.62;53.67;101784.56;5075307;28;1186;-57
2022/10/16 07:42:30;;;;;;;;;;;;;;;17.10;52.13;101795.97;5079296;28;1225;-53
2022/10/16 07:44:55;;;;;;;;;;;;;;;16.92;50.91;101794.31;5079500;28;1126;-54
2022/10/16 07:47:21;;;;;;;;;;;;;;;18.10;52.56;101801.41;5079175;28;1253;-52
2022/10/16 07:49:46;;;;;;;;;;;;;;;17.36;52.27;101791.66;5079115;28;1978;-49
2022/10/16 07:52:12;;;;;;;;;;;;;;;17.16;50.87;101802.38;5079371;28;1194;-57
2022/10/16 07:54:37;;;;;;;;;;;;;;;17.91;52.03;101805.59;5078887;28;1206;-56
2022/10/16 07:57:03;;;;;;;;;;;;;;;17.38;51.79;101803.22;5078664;28;1095;-54
2022/10/16 07:59:28;;;;;;;;;;;;;;;17.07;51.05;101805.53;5078545;28;1256;-56
2022/10/16 08:01:54;;;;;;;;;;;;;;;17.89;51.48;101799.44;5079174;28;1158;-57
2022/10/16 08:04:19;;;;;;;;;;;;;;;17.29;51.03;101801.97;5078634;28;1158;-54
2022/10/16 08:06:45;;;;;;;;;;;;;;;17.51;51.40;101809.44;5078281;28;1213;-57
2022/10/16 08:09:10;;;;;;;;;;;;;;;17.70;51.46;101805.28;5078496;28;1980;-56
2022/10/16 08:11:35;;;;;;;;;;;;;;;17.33;50.62;101789.41;5078564;28;1185;-54
2022/10/16 08:14:01;;;;;;;;;;;;;;;17.15;49.83;101800.69;5064143;28;2425;-55
2022/10/16 08:16:26;;;;;;;;;;;;;;;18.10;51.11;101804.16;5067722;28;1968;-57
2022/10/16 08:18:52;;;;;;;;;;;;;;;17.36;50.99;101804.56;5070137;28;2291;-58
2022/10/16 08:21:18;;;;;;;;;;;;;;;17.16;49.67;101796.88;5074389;28;1881;-57
2022/10/16 08:23:44;;;;;;;;;;;;;;;18.18;50.79;101807.53;5068371;28;1851;-57
2022/10/16 08:26:10;;;;;;;;;;;;;;;17.33;50.91;101794.91;5076551;28;2102;-57
2022/10/16 08:28:35;;;;;;;;;;;;;;;17.61;51.16;101784.81;5073455;28;2082;-57
2022/10/16 08:31:04;;;;;;;;;;;;;;;17.82;51.04;101802.41;5064420;28;1150;-57
2022/10/16 08:33:30;;;;;;;;;;;;;;;17.41;49.99;101788.97;5058155;28;1151;-57
2022/10/16 08:35:55;;;;;;;;;;;;;;;17.34;49.98;101802.06;5058275;28;1474;-58
2022/10/16 08:38:21;;;;;;;;;;;;;;;18.22;50.54;101806.72;5058120;28;1174;-56
2022/10/16 08:40:47;;;;;;;;;;;;;;;17.59;50.10;101804.31;5069675;28;1178;-56
2022/10/16 08:43:31;;;;;;;;;;;;;;;17.39;49.05;101813.16;5077835;28;1170;-57
2022/10/16 08:46:05;;;;;;;;;;;;;;;17.66;49.87;101809.63;5078120;28;1142;-58
2022/10/16 08:48:31;;;;;;;;;;;;;;;18.03;50.70;101808.19;5077814;28;1971;-58
2022/10/16 08:50:56;;;;;;;;;;;;;;;17.47;49.97;101808.28;5077777;28;1122;-57
2022/10/16 08:53:33;;;;;;;;;;;;;;;17.30;49.10;101813.84;5060895;28;1206;-57
2022/10/16 08:55:59;;;;;;;;;;;;;;;17.36;49.14;101816.41;5039935;28;1103;-57
2022/10/16 08:58:29;;;;;;;;;;;;;;;18.09;50.10;101818.13;5066312;28;1891;-57
2022/10/16 09:01:04;;;;;;;;;;;;;;;17.55;50.02;101813.34;5070534;28;1213;-57
2022/10/16 09:03:49;;;;;;;;;;;;;;;17.28;48.99;101819.59;5075059;28;1134;-56
2022/10/16 09:06:29;;;;;;;;;;;;;;;18.04;49.70;101818.91;5057920;28;1115;-57
2022/10/16 09:08:58;;;;;;;;;;;;;;;17.40;49.64;101816.72;5062305;28;1959;-57
2022/10/16 09:11:42;;;;;;;;;;;;;;;18.01;50.02;101821.38;5077670;28;1153;-58
2022/10/16 09:14:27;;;;;;;;;;;;;;;17.66;50.05;101815.16;5057388;28;1020;-58
2022/10/16 09:16:57;;;;;;;;;;;;;;;18.05;50.14;101817.84;5071467;28;1178;-59
2022/10/16 09:19:35;;;;;;;;;;;;;;;16.05;55.98;101802.66;5061658;28;989;-58
2022/10/16 09:22:01;;;;;;;;;;;;;;;16.68;54.32;101808.19;5072268;28;1174;-59
2022/10/16 09:24:27;;;;;;;;;;;;;;;18.84;50.53;101815.53;5071277;28;1146;-59
2022/10/16 09:26:52;;;;;;;;;;;;;;;14.78;59.84;101804.25;5077274;28;1197;-58
2022/10/16 09:29:24;;;;;;;;;;;;;;;17.26;54.19;101803.34;5063503;28;1927;-62
2022/10/16 09:31:51;;;;;;;;;;;;;;;17.81;52.38;101810.91;5076598;28;1149;-62
2022/10/16 09:34:26;;;;;;;;;;;;;;;17.32;51.46;101809.75;5059002;28;1234;-60
2022/10/16 09:36:51;;;;;;;;;;;;;;;17.70;51.25;101819.03;5077136;28;1111;-62
2022/10/16 09:39:17;;;;;;;;;;;;;;;17.75;51.43;101819.13;5076594;28;1166;-61
2022/10/16 09:41:43;;;;;;;;;;;;;;;17.37;50.45;101811.72;5076980;28;1130;-59
2022/10/16 09:44:35;;;;;;;;;;;;;;;18.03;51.31;101817.25;5069178;28;1126;-62
2022/10/16 09:47:03;;;;;;;;;;;;;;;17.64;50.83;101810.97;5059739;28;1504;-61
2022/10/16 09:49:29;;;;;;;;;;;;;;;17.34;49.99;101810.31;5076689;28;1902;-60
2022/10/16 09:52:24;;;;;;;;;;;;;;;18.12;50.40;101806.63;5061342;28;1197;-58
2022/10/16 09:55:15;;;;;;;;;;;;;;;17.41;49.87;101816.47;5062766;28;1234;-59
2022/10/16 09:57:50;;;;;;;;;;;;;;;17.88;50.47;101801.38;5060107;28;2308;-58
2022/10/16 10:00:16;;;;;;;;;;;;;;;17.81;50.21;101809.00;5074570;28;1111;-59
2022/10/16 10:02:41;;;;;;;;;;;;;;;17.57;50.66;101812.00;5076790;28;1162;-58
2022/10/16 10:05:17;;;;;;;;;;;;;;;17.42;52.88;101815.38;5076063;28;1126;-59
2022/10/16 10:07:43;;;;;;;;;;;;;;;16.05;56.07;101813.66;5076476;28;1991;-59
2022/10/16 10:10:25;;;;;;;;;;;;;;;18.75;51.11;101812.44;5058561;28;1147;-58
2022/10/16 10:12:50;;;;;;;;;;;;;;;14.74;60.80;101814.00;5075095;28;1150;-59
2022/10/16 10:15:23;;;;;;;;;;;;;;;17.43;54.80;101822.56;5076025;28;1106;-59
2022/10/16 10:17:52;;;;;;;;;;;;;;;16.87;55.61;101811.53;5076099;28;1130;-62
2022/10/16 10:20:32;;;;;;;;;;;;;;;15.71;56.85;101810.75;5076027;28;1237;-57
2022/10/16 10:22:58;;;;;;;;;;;;;;;17.66;54.16;101814.31;5067712;28;1094;-57
2022/10/16 10:25:23;;;;;;;;;;;;;;;17.48;53.02;101812.72;5038495;28;1234;-59
2022/10/16 10:27:49;;;;;;;;;;;;;;;17.26;51.59;101805.25;5070338;28;2428;-59
2022/10/16 10:30:26;;;;;;;;;;;;;;;17.09;50.14;101811.59;5068772;28;1146;-60
2022/10/16 10:33:04;;;;;;;;;;;;;;;18.15;51.75;101799.78;5066308;28;870;-58
2022/10/16 10:35:39;;;;;;;;;;;;;;;17.37;51.46;101801.56;5075756;28;1210;-58
2022/10/16 10:38:23;;;;;;;;;;;;;;;17.78;51.95;101802.09;5063234;28;1170;-58
2022/10/16 10:40:52;;;;;;;;;;;;;;;17.58;51.08;101804.59;5072259;28;1147;-58
2022/10/16 10:43:24;;;;;;;;;;;;;;;17.34;50.17;101809.50;5058070;28;1166;-59
2022/10/16 10:45:52;;;;;;;;;;;;;;;17.57;50.80;101813.91;5075563;28;960;-58
2022/10/16 10:48:56;;;;;;;;;;;;;;;17.94;50.98;101805.06;5075753;28;1978;-61
2022/10/16 10:51:32;;;;;;;;;;;;;;;17.40;50.03;101806.56;5002206;28;1212;-58
2022/10/16 10:54:00;;;;;;;;;;;;;;;17.27;49.10;101793.19;4982738;28;1262;-58
2022/10/16 10:56:26;;;;;;;;;;;;;;;18.62;50.42;101797.19;5028054;28;1230;-58
2022/10/16 10:59:10;;;;;;;;;;;;;;;14.73;58.67;101790.44;5061289;28;2606;-59
2022/10/16 11:01:44;;;;;;;;;;;;;;;17.44;53.17;101793.94;5070197;28;1225;-60
2022/10/16 11:04:15;;;;;;;;;;;;;;;17.72;52.14;101794.03;5076104;28;1138;-60
2022/10/16 11:06:41;;;;;;;;;;;;;;;17.32;50.84;101786.91;5057242;28;1035;-59
2022/10/16 11:09:09;;;;;;;;;;;;;;;17.89;51.28;101786.56;5075329;28;1917;-59
2022/10/16 11:11:36;;;;;;;;;;;;;;;17.66;51.52;101793.13;5075401;28;1142;-60
2022/10/16 11:14:01;;;;;;;;;;;;;;;17.41;50.35;101774.41;5075245;28;1066;-59
2022/10/16 11:16:34;;;;;;;;;;;;;;;17.23;49.37;101772.78;5075436;28;1130;-58
2022/10/16 11:19:02;;;;;;;;;;;;;;;18.13;50.71;101794.50;5075217;28;1166;-58
2022/10/16 11:21:28;;;;;;;;;;;;;;;17.75;50.89;101797.13;5072090;28;1042;-58
2022/10/16 11:23:59;;;;;;;;;;;;;;;17.41;49.83;101802.72;5057705;28;1101;-57
2022/10/16 11:26:26;;;;;;;;;;;;;;;18.12;50.60;101801.94;5075885;28;1268;-57
2022/10/16 11:28:54;;;;;;;;;;;;;;;15.01;57.71;101801.53;5075152;28;2417;-59
2022/10/16 11:31:23;;;;;;;;;;;;;;;17.87;52.45;101805.22;5070672;28;1237;-59
2022/10/16 11:34:06;;;;;;;;;;;;;;;17.55;52.04;101811.41;5075384;28;841;-58
2022/10/16 11:36:39;;;;;;;;;;;;;;;17.22;50.67;101809.59;5064431;28;1139;-59
2022/10/16 11:39:04;;;;;;;;;;;;;;;17.39;50.48;101799.41;5075281;28;1205;-58
2022/10/16 11:41:36;;;;;;;;;;;;;;;17.70;51.04;101788.78;5075643;28;1276;-61
2022/10/16 11:44:13;;;;;;;;;;;;;;;17.37;50.28;101787.81;5075708;28;1126;-61
2022/10/16 11:46:40;;;;;;;;;;;;;;;17.21;49.37;101786.78;5073295;28;1218;-60
2022/10/16 11:49:09;;;;;;;;;;;;;;;18.26;50.05;101796.88;5078481;28;1909;-58
2022/10/16 11:51:42;;;;;;;;;;;;;;;17.43;50.37;101789.56;5064732;28;1416;-60
2022/10/16 11:54:15;;;;;;;;;;;;;;;17.30;49.19;101792.66;5079085;28;1194;-58
2022/10/16 11:56:40;;;;;;;;;;;;;;;17.08;48.82;101795.38;5077288;28;1138;-60
2022/10/16 11:59:08;;;;;;;;;;;;;;;17.90;50.23;101790.94;5078421;28;1237;-61
2022/10/16 12:01:38;;;;;;;;;;;;;;;17.45;49.51;101792.88;5079019;28;1201;-59
2022/10/16 12:04:22;;;;;;;;;;;;;;;18.51;49.61;101791.84;5077873;28;1122;-58
2022/10/16 12:06:53;;;;;;;;;;;;;;;14.47;58.97;101795.25;5078600;28;1154;-54
2022/10/16 12:09:28;;;;;;;;;;;;;;;18.09;52.08;101801.63;5077137;28;1910;-58
2022/10/16 12:11:53;;;;;;;;;;;;;;;16.39;56.11;101785.44;5078981;28;1241;-58
2022/10/16 12:14:20;;;;;;;;;;;;;;;15.90;55.43;101789.47;5078591;28;1154;-57
2022/10/16 12:16:52;;;;;;;;;;;;;;;17.89;52.96;101792.06;5078880;28;1146;-57
2022/10/16 12:19:18;;;;;;;;;;;;;;;17.26;52.35;101802.50;5065316;28;1147;-58
2022/10/16 12:21:43;;;;;;;;;;;;;;;17.07;50.54;101791.78;5078096;28;1194;-59
2022/10/16 12:24:21;;;;;;;;;;;;;;;16.99;49.42;101792.22;5060516;28;1198;-59
2022/10/16 12:26:46;;;;;;;;;;;;;;;17.67;50.67;101805.81;5078832;28;1174;-62
2022/10/16 12:29:24;;;;;;;;;;;;;;;17.59;51.42;101790.56;5078226;28;1913;-63
2022/10/16 12:31:49;;;;;;;;;;;;;;;17.67;51.47;101805.81;5078687;28;1226;-58
2022/10/16 12:34:41;;;;;;;;;;;;;;;17.58;53.10;101804.59;5078013;28;1181;-61
2022/10/16 12:37:27;;;;;;;;;;;;;;;17.06;56.01;101816.78;5075431;28;1347;-60
2022/10/16 12:39:53;;;;;;;;;;;;;;;19.29;50.82;101822.53;5065632;28;1568;-55
2022/10/16 12:42:27;;;;;;;;;;;;;;;15.26;60.16;101822.34;5078471;28;1205;-59
2022/10/16 12:44:53;;;;;;;;;;;;;;;18.65;52.88;101831.66;5077935;28;1138;-59
2022/10/16 12:47:22;;;;;;;;;;;;;;;16.33;57.89;101825.69;5060512;28;1178;-58
2022/10/16 12:49:49;;;;;;;;;;;;;;;16.49;54.94;101834.22;5078152;28;1914;-58
2022/10/16 12:52:25;;;;;;;;;;;;;;;16.89;51.81;101830.53;5078307;28;1174;-58